LYBE/BEG METAR and TAF weather

Enter ICAO airport designator
Station Type Date Time Source
LYBE METAR 2018/10/21 09:00 UTC NOAA

LYBE 210900Z 32013KT 9999 SCT033 12/03 Q1022 NOSIG


Station Type Date Time Source
LYBE Decoded METAR 2018/10/21 09:00 UTC NOAA

Beograd / Surcin, Serbia and Montenegro (LYBE) 44-49N 020-17E 99M
Oct 21, 2018 - 05:00 AM EDT / 2018.10.21 0900 UTC
Wind: from the NW (320 degrees) at 15 MPH (13 KT):0
Visibility: greater than 7 mile(s):0
Sky conditions: partly cloudy
Temperature: 53 F (12 C)
Dew Point: 37 F (3 C)
Relative Humidity: 54%
Pressure (altimeter): 30.18 in. Hg (1022 hPa)
ob: LYBE 210900Z 32013KT 9999 SCT033 12/03 Q1022 NOSIG
cycle: 9

Station Type Date Time Source
LYBE TAF 2018/10/21 06:22 UTC NOAA

TAF LYBE 210500Z 2106/2206 27008KT 7000 SCT033 TX13/2112Z TN07/2205Z
TEMPO 2108/2114 33012KT
BECMG 2202/2204 3000 BR


Example: see airport list